sensor_id;sensor_type;location;lat;lon;timestamp;pressure;altitude;pressure_sealevel;temperature;humidity
59240;BME280;45010;53.640;10.578;2023-04-06T00:01:52;101373.06;;;25.83;29.35
59240;BME280;45010;53.640;10.578;2023-04-06T00:04:52;101362.84;;;25.79;29.34
59240;BME280;45010;53.640;10.578;2023-04-06T00:07:53;101349.69;;;25.78;29.20
59240;BME280;45010;53.640;10.578;2023-04-06T00:10:55;101308.59;;;25.42;28.99
59240;BME280;45010;53.640;10.578;2023-04-06T00:13:56;101350.59;;;25.72;29.35
59240;BME280;45010;53.640;10.578;2023-04-06T00:16:56;101339.91;;;25.72;29.42
59240;BME280;45010;53.640;10.578;2023-04-06T00:19:57;101354.31;;;25.71;29.53
59240;BME280;45010;53.640;10.578;2023-04-06T00:22:57;101341.69;;;25.59;29.33
59240;BME280;45010;53.640;10.578;2023-04-06T00:25:57;101348.00;;;25.65;29.35
59240;BME280;45010;53.640;10.578;2023-04-06T00:28:58;101346.63;;;25.62;29.28
59240;BME280;45010;53.640;10.578;2023-04-06T00:31:59;101343.31;;;25.60;29.31
59240;BME280;45010;53.640;10.578;2023-04-06T00:34:59;101344.38;;;25.59;29.27
59240;BME280;45010;53.640;10.578;2023-04-06T00:37:59;101336.78;;;25.56;29.27
59240;BME280;45010;53.640;10.578;2023-04-06T00:41:00;101337.03;;;25.55;29.22
59240;BME280;45010;53.640;10.578;2023-04-06T00:44:01;101331.06;;;25.52;29.16
59240;BME280;45010;53.640;10.578;2023-04-06T00:47:01;101319.25;;;25.42;29.49
59240;BME280;45010;53.640;10.578;2023-04-06T00:50:02;101311.09;;;25.36;29.32
59240;BME280;45010;53.640;10.578;2023-04-06T00:53:02;101328.25;;;25.47;29.40
59240;BME280;45010;53.640;10.578;2023-04-06T00:56:03;101318.91;;;25.38;29.43
59240;BME280;45010;53.640;10.578;2023-04-06T00:59:03;101329.94;;;25.42;29.41
59240;BME280;45010;53.640;10.578;2023-04-06T01:02:03;101329.94;;;25.42;29.36
59240;BME280;45010;53.640;10.578;2023-04-06T01:05:04;101291.97;;;25.21;29.22
59240;BME280;45010;53.640;10.578;2023-04-06T01:08:06;101323.41;;;25.37;29.36
59240;BME280;45010;53.640;10.578;2023-04-06T01:11:07;101310.34;;;25.29;29.36
59240;BME280;45010;53.640;10.578;2023-04-06T01:14:07;101309.94;;;25.32;29.37
59240;BME280;45010;53.640;10.578;2023-04-06T01:17:08;101322.66;;;25.30;29.42
59240;BME280;45010;53.640;10.578;2023-04-06T01:20:08;101314.88;;;25.29;29.41
59240;BME280;45010;53.640;10.578;2023-04-06T01:23:08;101310.81;;;25.26;29.28
59240;BME280;45010;53.640;10.578;2023-04-06T01:26:09;101314.50;;;25.25;29.37
59240;BME280;45010;53.640;10.578;2023-04-06T01:29:09;101317.63;;;25.22;29.52
59240;BME280;45010;53.640;10.578;2023-04-06T01:32:10;101319.47;;;25.21;29.44
59240;BME280;45010;53.640;10.578;2023-04-06T01:35:10;101311.66;;;25.20;29.39
59240;BME280;45010;53.640;10.578;2023-04-06T01:38:11;101310.28;;;25.17;29.52
59240;BME280;45010;53.640;10.578;2023-04-06T01:41:11;101299.66;;;25.10;29.35
59240;BME280;45010;53.640;10.578;2023-04-06T01:44:11;101319.56;;;25.15;29.44
59240;BME280;45010;53.640;10.578;2023-04-06T01:47:12;101317.91;;;25.14;29.65
59240;BME280;45010;53.640;10.578;2023-04-06T01:50:12;101307.69;;;25.10;29.59
59240;BME280;45010;53.640;10.578;2023-04-06T01:53:13;101303.59;;;25.08;29.56
59240;BME280;45010;53.640;10.578;2023-04-06T01:56:13;101291.78;;;24.97;29.61
59240;BME280;45010;53.640;10.578;2023-04-06T01:59:13;101310.19;;;25.05;29.65
59240;BME280;45010;53.640;10.578;2023-04-06T02:02:14;101312.25;;;25.03;29.59
59240;BME280;45010;53.640;10.578;2023-04-06T02:05:14;101307.97;;;25.02;29.63
59240;BME280;45010;53.640;10.578;2023-04-06T02:08:15;101299.34;;;25.00;29.50
59240;BME280;45010;53.640;10.578;2023-04-06T02:11:15;101306.75;;;24.98;29.58
59240;BME280;45010;53.640;10.578;2023-04-06T02:14:15;101286.56;;;24.83;29.62
59240;BME280;45010;53.640;10.578;2023-04-06T02:17:16;101308.22;;;24.94;29.59
59240;BME280;45010;53.640;10.578;2023-04-06T02:20:16;101302.16;;;24.87;29.49
59240;BME280;45010;53.640;10.578;2023-04-06T02:23:16;101314.03;;;24.91;29.60
59240;BME280;45010;53.640;10.578;2023-04-06T02:26:17;101315.03;;;24.90;29.67
59240;BME280;45010;53.640;10.578;2023-04-06T02:29:17;101318.97;;;24.87;29.69
59240;BME280;45010;53.640;10.578;2023-04-06T02:32:17;101314.44;;;24.88;29.61
59240;BME280;45010;53.640;10.578;2023-04-06T02:35:18;101315.47;;;24.87;29.55
59240;BME280;45010;53.640;10.578;2023-04-06T02:38:18;101309.56;;;24.84;29.54
59240;BME280;45010;53.640;10.578;2023-04-06T02:41:18;101312.44;;;24.83;29.63
59240;BME280;45010;53.640;10.578;2023-04-06T02:44:19;101302.81;;;24.82;29.64
59240;BME280;45010;53.640;10.578;2023-04-06T02:47:19;101304.66;;;24.81;29.64
59240;BME280;45010;53.640;10.578;2023-04-06T02:50:20;101308.31;;;24.80;29.67
59240;BME280;45010;53.640;10.578;2023-04-06T02:53:20;101310.41;;;24.78;29.78
59240;BME280;45010;53.640;10.578;2023-04-06T02:56:20;101312.44;;;24.76;29.51
59240;BME280;45010;53.640;10.578;2023-04-06T02:59:21;101317.78;;;24.76;29.74
59240;BME280;45010;53.640;10.578;2023-04-06T03:02:22;101314.53;;;24.74;29.66
59240;BME280;45010;53.640;10.578;2023-04-06T03:05:22;101311.28;;;24.72;29.60
59240;BME280;45010;53.640;10.578;2023-04-06T03:08:22;101307.97;;;24.70;29.67
59240;BME280;45010;53.640;10.578;2023-04-06T03:11:23;101304.72;;;24.68;29.72
59240;BME280;45010;53.640;10.578;2023-04-06T03:14:23;101312.16;;;24.66;29.70
59240;BME280;45010;53.640;10.578;2023-04-06T03:17:23;101313.16;;;24.65;29.83
59240;BME280;45010;53.640;10.578;2023-04-06T03:20:24;101310.94;;;24.62;29.68
59240;BME280;45010;53.640;10.578;2023-04-06T03:23:24;101310.94;;;24.62;29.60
59240;BME280;45010;53.640;10.578;2023-04-06T03:26:24;101305.00;;;24.60;29.71
59240;BME280;45010;53.640;10.578;2023-04-06T03:29:25;101304.38;;;24.57;29.88
59240;BME280;45010;53.640;10.578;2023-04-06T03:32:25;101300.09;;;24.56;29.75
59240;BME280;45010;53.640;10.578;2023-04-06T03:35:26;101306.47;;;24.55;29.99
59240;BME280;45010;53.640;10.578;2023-04-06T03:38:26;101308.50;;;24.53;29.94
59240;BME280;45010;53.640;10.578;2023-04-06T03:41:27;101298.34;;;24.43;30.05
59240;BME280;45010;53.640;10.578;2023-04-06T03:44:27;101313.25;;;24.51;29.83
59240;BME280;45010;53.640;10.578;2023-04-06T03:47:27;101286.09;;;24.36;30.09
59240;BME280;45010;53.640;10.578;2023-04-06T03:50:27;101300.78;;;24.45;29.90
59240;BME280;45010;53.640;10.578;2023-04-06T03:53:28;101311.03;;;24.48;30.03
59240;BME280;45010;53.640;10.578;2023-04-06T03:56:28;101309.81;;;24.44;30.04
59240;BME280;45010;53.640;10.578;2023-04-06T03:59:29;101314.13;;;24.45;30.24
59240;BME280;45010;53.640;10.578;2023-04-06T04:02:29;101321.91;;;24.47;30.13
59240;BME280;45010;53.640;10.578;2023-04-06T04:05:29;101311.06;;;24.41;29.92
59240;BME280;45010;53.640;10.578;2023-04-06T04:08:30;101320.50;;;24.44;29.86
59240;BME280;45010;53.640;10.578;2023-04-06T04:11:30;101321.53;;;24.43;30.06
59240;BME280;45010;53.640;10.578;2023-04-06T04:14:30;101327.06;;;24.41;30.23
59240;BME280;45010;53.640;10.578;2023-04-06T04:17:31;101323.56;;;24.41;29.95
59240;BME280;45010;53.640;10.578;2023-04-06T04:20:31;101326.25;;;24.41;30.20
59240;BME280;45010;53.640;10.578;2023-04-06T04:23:31;101321.94;;;24.40;30.13
59240;BME280;45010;53.640;10.578;2023-04-06T04:26:32;101322.97;;;24.39;30.24
59240;BME280;45010;53.640;10.578;2023-04-06T04:29:32;101322.16;;;24.38;30.01
59240;BME280;45010;53.640;10.578;2023-04-06T04:32:32;101322.97;;;24.39;30.04
59240;BME280;45010;53.640;10.578;2023-04-06T04:35:33;101325.66;;;24.39;30.22
59240;BME280;45010;53.640;10.578;2023-04-06T04:38:33;101315.44;;;24.36;30.23
59240;BME280;45010;53.640;10.578;2023-04-06T04:41:33;101313.38;;;24.31;30.05
59240;BME280;45010;53.640;10.578;2023-04-06T04:44:34;101319.72;;;24.37;30.29
59240;BME280;45010;53.640;10.578;2023-04-06T04:47:34;101318.09;;;24.36;30.07
59240;BME280;45010;53.640;10.578;2023-04-06T04:50:35;101315.44;;;24.36;30.26
59240;BME280;45010;53.640;10.578;2023-04-06T04:53:35;101308.28;;;24.29;30.08
59240;BME280;45010;53.640;10.578;2023-04-06T04:56:35;101311.94;;;24.35;30.17
59240;BME280;45010;53.640;10.578;2023-04-06T04:59:36;101321.75;;;24.35;30.67
59240;BME280;45010;53.640;10.578;2023-04-06T05:02:36;101320.75;;;24.36;30.88
59240;BME280;45010;53.640;10.578;2023-04-06T05:05:36;101302.97;;;24.29;30.83
59240;BME280;45010;53.640;10.578;2023-04-06T05:08:37;101323.81;;;24.39;31.20
59240;BME280;45010;53.640;10.578;2023-04-06T05:11:37;101324.63;;;24.40;31.16
59240;BME280;45010;53.640;10.578;2023-04-06T05:14:37;101323.56;;;24.41;31.10
59240;BME280;45010;53.640;10.578;2023-04-06T05:17:38;101325.81;;;24.44;31.15
59240;BME280;45010;53.640;10.578;2023-04-06T05:20:38;101317.66;;;24.39;31.04
59240;BME280;45010;53.640;10.578;2023-04-06T05:23:39;101320.03;;;24.47;31.36
59240;BME280;45010;53.640;10.578;2023-04-06T05:26:40;101328.66;;;24.49;31.14
59240;BME280;45010;53.640;10.578;2023-04-06T05:29:40;101321.25;;;24.51;31.18
59240;BME280;45010;53.640;10.578;2023-04-06T05:32:41;101325.13;;;24.55;31.23
59240;BME280;45010;53.640;10.578;2023-04-06T05:35:42;101329.00;;;24.60;31.09
59240;BME280;45010;53.640;10.578;2023-04-06T05:38:43;101327.53;;;24.64;31.26
59240;BME280;45010;53.640;10.578;2023-04-06T05:41:43;101322.81;;;24.66;30.99
59240;BME280;45010;53.640;10.578;2023-04-06T05:44:43;101329.31;;;24.70;31.07
59240;BME280;45010;53.640;10.578;2023-04-06T05:47:44;101337.72;;;24.74;31.06
59240;BME280;45010;53.640;10.578;2023-04-06T05:50:48;101327.69;;;24.69;30.66
59240;BME280;45010;53.640;10.578;2023-04-06T05:53:50;101325.19;;;24.74;29.90
59240;BME280;45010;53.640;10.578;2023-04-06T05:56:50;101317.84;;;24.69;29.97
59240;BME280;45010;53.640;10.578;2023-04-06T05:59:51;101337.50;;;24.75;29.90
59240;BME280;45010;53.640;10.578;2023-04-06T06:02:51;101334.25;;;24.73;30.14
59240;BME280;45010;53.640;10.578;2023-04-06T06:05:51;101313.00;;;24.60;29.88
59240;BME280;45010;53.640;10.578;2023-04-06T06:08:52;101324.00;;;24.70;29.96
59240;BME280;45010;53.640;10.578;2023-04-06T06:11:52;101336.66;;;24.81;30.06
59240;BME280;45010;53.640;10.578;2023-04-06T06:14:53;101339.13;;;24.83;30.00
59240;BME280;45010;53.640;10.578;2023-04-06T06:17:54;101345.25;;;24.83;29.79
59240;BME280;45010;53.640;10.578;2023-04-06T06:20:54;101326.41;;;24.78;30.08
59240;BME280;45010;53.640;10.578;2023-04-06T06:23:54;101347.28;;;24.88;30.03
59240;BME280;45010;53.640;10.578;2023-04-06T06:26:55;101344.38;;;24.90;30.25
59240;BME280;45010;53.640;10.578;2023-04-06T06:29:55;101337.41;;;24.89;30.10
59240;BME280;45010;53.640;10.578;2023-04-06T06:32:56;101343.97;;;24.93;30.35
59240;BME280;45010;53.640;10.578;2023-04-06T06:35:56;101343.97;;;24.93;30.20
59240;BME280;45010;53.640;10.578;2023-04-06T06:38:56;101342.72;;;24.95;30.27
59240;BME280;45010;53.640;10.578;2023-04-06T06:41:57;101343.53;;;24.96;30.19
59240;BME280;45010;53.640;10.578;2023-04-06T06:45:00;101342.72;;;24.95;30.06
59240;BME280;45010;53.640;10.578;2023-04-06T06:48:00;101346.78;;;24.98;30.12
59240;BME280;45010;53.640;10.578;2023-04-06T06:51:01;101346.78;;;24.98;30.02
59240;BME280;45010;53.640;10.578;2023-04-06T06:54:01;101344.72;;;25.00;29.97
59240;BME280;45010;53.640;10.578;2023-04-06T06:57:01;101346.13;;;25.03;30.05
59240;BME280;45010;53.640;10.578;2023-04-06T07:00:02;101348.00;;;25.02;29.90
59240;BME280;45010;53.640;10.578;2023-04-06T07:03:05;101352.88;;;25.05;30.02
59240;BME280;45010;53.640;10.578;2023-04-06T07:06:05;101347.53;;;25.05;30.01
59240;BME280;45010;53.640;10.578;2023-04-06T07:09:06;101352.47;;;25.08;29.84
59240;BME280;45010;53.640;10.578;2023-04-06T07:12:06;101348.75;;;25.09;29.81
59240;BME280;45010;53.640;10.578;2023-04-06T07:15:07;101349.53;;;25.10;29.81
59240;BME280;45010;53.640;10.578;2023-04-06T07:18:07;101349.34;;;25.11;29.83
59240;BME280;45010;53.640;10.578;2023-04-06T07:21:08;101347.50;;;25.12;29.95
59240;BME280;45010;53.640;10.578;2023-04-06T07:24:08;101319.66;;;25.01;29.86
59240;BME280;45010;53.640;10.578;2023-04-06T07:27:08;101329.44;;;25.07;30.01
59240;BME280;45010;53.640;10.578;2023-04-06T07:30:09;101337.63;;;25.12;29.92
59240;BME280;45010;53.640;10.578;2023-04-06T07:33:10;101335.56;;;25.15;29.94
59240;BME280;45010;53.640;10.578;2023-04-06T07:36:10;101338.00;;;25.16;29.93
59240;BME280;45010;53.640;10.578;2023-04-06T07:39:10;101330.66;;;25.11;29.98
59240;BME280;45010;53.640;10.578;2023-04-06T07:42:11;101338.59;;;25.18;29.86
59240;BME280;45010;53.640;10.578;2023-04-06T07:45:11;101331.41;;;25.19;29.80
59240;BME280;45010;53.640;10.578;2023-04-06T07:48:11;101333.03;;;25.20;29.77
59240;BME280;45010;53.640;10.578;2023-04-06T07:51:12;101333.03;;;25.20;29.59
59240;BME280;45010;53.640;10.578;2023-04-06T07:54:14;101325.63;;;25.22;29.74
59240;BME280;45010;53.640;10.578;2023-04-06T07:57:15;101334.44;;;25.22;29.52
59240;BME280;45010;53.640;10.578;2023-04-06T08:00:15;101337.94;;;25.23;29.48
59240;BME280;45010;53.640;10.578;2023-04-06T08:03:16;101334.22;;;25.24;29.54
59240;BME280;45010;53.640;10.578;2023-04-06T08:06:17;101335.06;;;25.24;29.47
59240;BME280;45010;53.640;10.578;2023-04-06T08:09:17;101311.75;;;25.13;29.32
59240;BME280;45010;53.640;10.578;2023-04-06T08:12:17;101325.41;;;25.23;29.27
59240;BME280;45010;53.640;10.578;2023-04-06T08:15:18;101336.22;;;25.29;29.34
59240;BME280;45010;53.640;10.578;2023-04-06T08:18:18;101329.50;;;25.26;28.06
59240;BME280;45010;53.640;10.578;2023-04-06T08:21:18;101329.72;;;25.24;27.74
59240;BME280;45010;53.640;10.578;2023-04-06T08:24:19;101329.72;;;25.24;27.81
59240;BME280;45010;53.640;10.578;2023-04-06T08:27:19;101312.13;;;25.17;27.18
59240;BME280;45010;53.640;10.578;2023-04-06T08:30:20;101323.56;;;25.24;26.13
59240;BME280;45010;53.640;10.578;2023-04-06T08:33:21;101325.63;;;25.22;25.10
59240;BME280;45010;53.640;10.578;2023-04-06T08:36:21;101305.22;;;25.09;24.22
59240;BME280;45010;53.640;10.578;2023-04-06T08:39:22;101318.50;;;25.16;23.21
59240;BME280;45010;53.640;10.578;2023-04-06T08:42:26;101316.09;;;25.07;22.87
59240;BME280;45010;53.640;10.578;2023-04-06T08:45:29;101322.84;;;25.10;22.16
59240;BME280;45010;53.640;10.578;2023-04-06T08:48:29;101314.47;;;25.06;21.73
59240;BME280;45010;53.640;10.578;2023-04-06T08:51:30;101318.41;;;25.04;21.44
59240;BME280;45010;53.640;10.578;2023-04-06T08:54:30;101312.69;;;25.00;21.56
59240;BME280;45010;53.640;10.578;2023-04-06T08:57:31;101310.22;;;24.98;21.38
59240;BME280;45010;53.640;10.578;2023-04-06T09:00:32;101316.41;;;24.99;21.91
59240;BME280;45010;53.640;10.578;2023-04-06T09:03:37;101308.97;;;25.01;22.62
59240;BME280;45010;53.640;10.578;2023-04-06T09:06:39;101308.34;;;25.06;23.22
59240;BME280;45010;53.640;10.578;2023-04-06T09:09:40;101288.09;;;24.98;23.77
59240;BME280;45010;53.640;10.578;2023-04-06T09:12:47;101311.38;;;25.09;24.19
59240;BME280;45010;53.640;10.578;2023-04-06T09:16:04;101300.09;;;25.07;24.63
59240;BME280;45010;53.640;10.578;2023-04-06T09:19:06;101305.38;;;25.14;24.60
59240;BME280;45010;53.640;10.578;2023-04-06T09:22:06;101299.81;;;25.16;24.32
59240;BME280;45010;53.640;10.578;2023-04-06T09:25:17;101295.28;;;25.16;24.38
59240;BME280;45010;53.640;10.578;2023-04-06T09:28:18;101296.16;;;25.10;24.06
59240;BME280;45010;53.640;10.578;2023-04-06T09:34:23;101294.50;;;25.16;23.08
59240;BME280;45010;53.640;10.578;2023-04-06T09:37:27;101290.78;;;25.17;23.04
59240;BME280;45010;53.640;10.578;2023-04-06T09:40:28;101292.41;;;25.18;23.14
59240;BME280;45010;53.640;10.578;2023-04-06T09:43:29;101294.03;;;25.19;23.44
59240;BME280;45010;53.640;10.578;2023-04-06T09:46:33;101291.81;;;25.16;23.45
59240;BME280;45010;53.640;10.578;2023-04-06T09:49:34;101293.59;;;25.22;23.11
59240;BME280;45010;53.640;10.578;2023-04-06T09:52:42;101280.94;;;25.17;22.50
59240;BME280;45010;53.640;10.578;2023-04-06T09:55:48;101290.31;;;25.20;22.46
59240;BME280;45010;53.640;10.578;2023-04-06T09:58:56;101289.31;;;25.21;22.16
59240;BME280;45010;53.640;10.578;2023-04-06T10:01:58;101275.34;;;25.19;21.71
59240;BME280;45010;53.640;10.578;2023-04-06T10:05:19;101284.13;;;25.26;21.38
59240;BME280;45010;53.640;10.578;2023-04-06T10:08:22;101285.75;;;25.27;21.76
59240;BME280;45010;53.640;10.578;2023-04-06T10:11:24;101274.03;;;25.28;22.05
59240;BME280;45010;53.640;10.578;2023-04-06T10:14:24;101272.97;;;25.29;22.08
59240;BME280;45010;53.640;10.578;2023-04-06T10:17:25;101274.03;;;25.28;22.07
59240;BME280;45010;53.640;10.578;2023-04-06T10:20:36;101267.72;;;25.22;22.45
59240;BME280;45010;53.640;10.578;2023-04-06T10:23:43;101266.03;;;25.28;22.25
59240;BME280;45010;53.640;10.578;2023-04-06T10:26:56;101253.34;;;25.23;22.57
59240;BME280;45010;53.640;10.578;2023-04-06T10:30:02;101248.44;;;25.20;22.78
59240;BME280;45010;53.640;10.578;2023-04-06T10:33:17;101270.69;;;25.33;23.07
59240;BME280;45010;53.640;10.578;2023-04-06T10:36:26;101240.66;;;25.19;23.05
59240;BME280;45010;53.640;10.578;2023-04-06T10:39:26;101258.16;;;25.33;22.98
59240;BME280;45010;53.640;10.578;2023-04-06T10:42:37;101253.41;;;25.35;23.12
59240;BME280;45010;53.640;10.578;2023-04-06T10:45:39;101259.56;;;25.36;23.49
59240;BME280;45010;53.640;10.578;2023-04-06T10:48:44;101252.22;;;25.31;23.29
59240;BME280;45010;53.640;10.578;2023-04-06T10:51:51;101244.81;;;25.33;23.55
59240;BME280;45010;53.640;10.578;2023-04-06T10:54:52;101253.56;;;25.41;23.90
59240;BME280;45010;53.640;10.578;2023-04-06T10:57:55;101255.19;;;25.42;24.05
59240;BME280;45010;53.640;10.578;2023-04-06T11:00:55;101250.66;;;25.42;24.03
59240;BME280;45010;53.640;10.578;2023-04-06T11:03:57;101239.63;;;25.38;24.38
59240;BME280;45010;53.640;10.578;2023-04-06T11:07:00;101255.53;;;25.45;24.42
59240;BME280;45010;53.640;10.578;2023-04-06T11:10:00;101248.34;;;25.46;24.38
59240;BME280;45010;53.640;10.578;2023-04-06T11:13:00;101248.94;;;25.48;24.75
59240;BME280;45010;53.640;10.578;2023-04-06T11:16:01;101255.13;;;25.48;24.91
59240;BME280;45010;53.640;10.578;2023-04-06T11:19:04;101224.75;;;25.43;24.54
59240;BME280;45010;53.640;10.578;2023-04-06T11:22:07;101234.53;;;25.49;24.48
59240;BME280;45010;53.640;10.578;2023-04-06T11:25:08;101238.84;;;25.50;24.38
59240;BME280;45010;53.640;10.578;2023-04-06T11:28:09;101243.16;;;25.51;24.62
59240;BME280;45010;53.640;10.578;2023-04-06T11:31:10;101226.38;;;25.44;24.85
59240;BME280;45010;53.640;10.578;2023-04-06T11:34:12;101242.72;;;25.54;24.68
59240;BME280;45010;53.640;10.578;2023-04-06T11:37:14;101222.69;;;25.45;24.22
59240;BME280;45010;53.640;10.578;2023-04-06T11:40:14;101235.31;;;25.56;24.23
59240;BME280;45010;53.640;10.578;2023-04-06T11:43:15;101235.91;;;25.58;24.27
59240;BME280;45010;53.640;10.578;2023-04-06T11:46:18;101219.28;;;25.56;24.52
59240;BME280;45010;53.640;10.578;2023-04-06T11:49:19;101222.09;;;25.61;24.61
59240;BME280;45010;53.640;10.578;2023-04-06T11:52:24;101211.25;;;25.56;24.87
59240;BME280;45010;53.640;10.578;2023-04-06T11:55:25;101218.97;;;25.64;24.78
59240;BME280;45010;53.640;10.578;2023-04-06T11:58:26;101223.28;;;25.65;24.93
59240;BME280;45010;53.640;10.578;2023-04-06T12:01:28;101206.88;;;25.62;24.93
59240;BME280;45010;53.640;10.578;2023-04-06T12:04:29;101208.44;;;25.70;24.77
59240;BME280;45010;53.640;10.578;2023-04-06T12:07:29;101215.41;;;25.71;25.02
59240;BME280;45010;53.640;10.578;2023-04-06T12:10:30;101192.81;;;25.55;24.54
59240;BME280;45010;53.640;10.578;2023-04-06T12:13:30;101211.47;;;25.73;24.47
59240;BME280;45010;53.640;10.578;2023-04-06T12:16:31;101212.25;;;25.74;24.33
59240;BME280;45010;53.640;10.578;2023-04-06T12:19:31;101212.03;;;25.75;24.31
59240;BME280;45010;53.640;10.578;2023-04-06T12:22:32;101203.53;;;25.67;24.44
59240;BME280;45010;53.640;10.578;2023-04-06T12:25:32;101219.84;;;25.77;23.84
59240;BME280;45010;53.640;10.578;2023-04-06T12:28:32;101205.44;;;25.78;24.19
59240;BME280;45010;53.640;10.578;2023-04-06T12:31:34;101188.22;;;25.74;24.22
59240;BME280;45010;53.640;10.578;2023-04-06T12:34:35;101202.75;;;25.78;24.35
59240;BME280;45010;53.640;10.578;2023-04-06T12:37:35;101201.28;;;25.82;24.09
59240;BME280;45010;53.640;10.578;2023-04-06T12:40:37;101203.94;;;25.82;24.27
59240;BME280;45010;53.640;10.578;2023-04-06T12:43:39;101202.91;;;25.83;24.20
59240;BME280;45010;53.640;10.578;2023-04-06T12:46:40;101194.31;;;25.81;23.79
59240;BME280;45010;53.640;10.578;2023-04-06T12:49:40;101192.66;;;25.80;23.26
59240;BME280;45010;53.640;10.578;2023-04-06T12:52:41;101193.69;;;25.79;23.13
59240;BME280;45010;53.640;10.578;2023-04-06T12:55:41;101190.22;;;25.78;23.32
59240;BME280;45010;53.640;10.578;2023-04-06T12:58:42;101163.31;;;25.61;23.38
59240;BME280;45010;53.640;10.578;2023-04-06T13:01:42;101189.97;;;25.80;23.71
59240;BME280;45010;53.640;10.578;2023-04-06T13:04:44;101193.47;;;25.81;23.69
59240;BME280;45010;53.640;10.578;2023-04-06T13:07:44;101182.78;;;25.81;23.82
59240;BME280;45010;53.640;10.578;2023-04-06T13:10:50;101163.72;;;25.77;23.68
59240;BME280;45010;53.640;10.578;2023-04-06T13:13:52;101171.88;;;25.82;23.77
59240;BME280;45010;53.640;10.578;2023-04-06T13:16:52;101178.84;;;25.83;23.90
59240;BME280;45010;53.640;10.578;2023-04-06T13:19:53;101166.31;;;25.84;23.77
59240;BME280;45010;53.640;10.578;2023-04-06T13:22:53;101145.47;;;25.74;23.50
59240;BME280;45010;53.640;10.578;2023-04-06T13:26:04;101152.47;;;25.75;23.53
59240;BME280;45010;53.640;10.578;2023-04-06T13:29:06;101159.44;;;25.76;23.95
59240;BME280;45010;53.640;10.578;2023-04-06T13:32:06;101163.88;;;25.82;23.66
59240;BME280;45010;53.640;10.578;2023-04-06T13:35:07;101150.25;;;25.72;23.75
59240;BME280;45010;53.640;10.578;2023-04-06T13:38:07;101161.78;;;25.84;24.01
59240;BME280;45010;53.640;10.578;2023-04-06T13:41:08;101163.38;;;25.85;23.80
59240;BME280;45010;53.640;10.578;2023-04-06T13:44:08;101157.81;;;25.87;23.73
59240;BME280;45010;53.640;10.578;2023-04-06T13:47:08;101167.47;;;25.88;23.49
59240;BME280;45010;53.640;10.578;2023-04-06T13:50:09;101157.59;;;25.88;23.72
59240;BME280;45010;53.640;10.578;2023-04-06T13:53:09;101164.56;;;25.89;23.98
59240;BME280;45010;53.640;10.578;2023-04-06T13:56:09;101166.19;;;25.90;23.80
59240;BME280;45010;53.640;10.578;2023-04-06T13:59:10;101151.22;;;25.89;23.97
59240;BME280;45010;53.640;10.578;2023-04-06T14:02:10;101158.66;;;25.87;23.18
59240;BME280;45010;53.640;10.578;2023-04-06T14:05:11;101152.25;;;25.88;23.45
59240;BME280;45010;53.640;10.578;2023-04-06T14:08:11;101146.22;;;25.81;23.54
59240;BME280;45010;53.640;10.578;2023-04-06T14:11:12;101155.97;;;25.87;23.27
59240;BME280;45010;53.640;10.578;2023-04-06T14:14:13;101152.25;;;25.88;23.42
59240;BME280;45010;53.640;10.578;2023-04-06T14:17:13;101136.44;;;25.87;23.04
59240;BME280;45010;53.640;10.578;2023-04-06T14:20:13;101140.53;;;25.89;23.17
59240;BME280;45010;53.640;10.578;2023-04-06T14:23:15;101145.28;;;25.87;23.06
59240;BME280;45010;53.640;10.578;2023-04-06T14:26:15;101140.41;;;25.84;23.31
59240;BME280;45010;53.640;10.578;2023-04-06T14:29:16;101144.81;;;25.90;23.29
59240;BME280;45010;53.640;10.578;2023-04-06T14:32:17;101108.53;;;25.71;23.50
59240;BME280;45010;53.640;10.578;2023-04-06T14:35:18;101148.09;;;25.92;23.42
59240;BME280;45010;53.640;10.578;2023-04-06T14:38:18;101132.84;;;25.93;23.35
59240;BME280;45010;53.640;10.578;2023-04-06T14:41:20;101126.59;;;25.87;23.51
59240;BME280;45010;53.640;10.578;2023-04-06T14:44:21;101133.69;;;25.94;23.56
59240;BME280;45010;53.640;10.578;2023-04-06T14:47:21;101133.69;;;25.94;23.52
59240;BME280;45010;53.640;10.578;2023-04-06T14:50:21;101129.97;;;25.95;23.60
59240;BME280;45010;53.640;10.578;2023-04-06T14:53:23;101095.31;;;25.76;23.71
59240;BME280;45010;53.640;10.578;2023-04-06T14:56:23;101111.97;;;25.90;23.80
59240;BME280;45010;53.640;10.578;2023-04-06T14:59:24;101120.91;;;25.96;23.96
59240;BME280;45010;53.640;10.578;2023-04-06T15:02:24;101115.56;;;25.96;23.98
59240;BME280;45010;53.640;10.578;2023-04-06T15:05:25;101116.13;;;25.98;24.40
59240;BME280;45010;53.640;10.578;2023-04-06T15:08:25;101111.81;;;25.97;24.33
59240;BME280;45010;53.640;10.578;2023-04-06T15:11:25;101109.03;;;25.91;24.04
59240;BME280;45010;53.640;10.578;2023-04-06T15:14:26;101111.38;;;26.00;24.23
59240;BME280;45010;53.640;10.578;2023-04-06T15:17:26;101122.06;;;26.00;24.41
59240;BME280;45010;53.640;10.578;2023-04-06T15:20:27;101115.69;;;26.01;24.39
59240;BME280;45010;53.640;10.578;2023-04-06T15:23:27;101110.22;;;25.96;24.25
59240;BME280;45010;53.640;10.578;2023-04-06T15:26:31;101119.16;;;26.01;24.29
59240;BME280;45010;53.640;10.578;2023-04-06T15:29:31;101110.22;;;25.96;24.48
59240;BME280;45010;53.640;10.578;2023-04-06T15:32:32;101118.34;;;26.01;24.42
59240;BME280;45010;53.640;10.578;2023-04-06T15:35:32;101103.25;;;25.95;24.40
59240;BME280;45010;53.640;10.578;2023-04-06T15:38:34;101111.38;;;26.00;24.80